Time;durP1;ratioP1;P1;durP2;ratioP2;P2;SDS_P1;SDS_P2;PMS_P1;PMS_P2;Temp;Humidity;BMP_temperature;BMP_pressure;BME280_temperature;BME280_humidity;BME280_pressure;Samples;Min_cycle;Max_cycle;Signal;HPM_P1;HPM_P2
2022/10/04 00:00:37;;;;;;;23.10;16.58;;;;;;;7.79;100.00;102132.28;10344913;28;20057;-78
2022/10/04 00:05:37;;;;;;;30.58;22.30;;;;;;;7.81;100.00;102129.81;10344828;28;20069;-77
2022/10/04 00:10:38;;;;;;;23.65;17.27;;;;;;;7.84;100.00;102128.34;10359211;28;20129;-78
2022/10/04 00:15:38;;;;;;;23.58;16.95;;;;;;;7.78;100.00;102131.38;10360894;28;20056;-77
2022/10/04 00:20:52;;;;;;;25.50;18.23;;;;;;;7.73;100.00;102129.19;10360184;28;20093;-78
2022/10/04 00:26:14;;;;;;;30.42;18.67;;;;;;;7.61;100.00;102130.03;10358332;28;20057;-77
2022/10/04 00:31:19;;;;;;;31.13;18.92;;;;;;;7.55;100.00;102128.66;10359324;28;20049;-78
2022/10/04 00:36:23;;;;;;;24.75;15.65;;;;;;;7.43;100.00;102121.66;10329262;28;20505;-78
2022/10/04 00:41:23;;;;;;;24.73;19.70;;;;;;;7.44;100.00;102122.56;10360892;28;20042;-78
2022/10/04 00:46:24;;;;;;;30.38;19.10;;;;;;;7.43;100.00;102121.66;10314413;28;20489;-78
2022/10/04 00:51:40;;;;;;;37.58;23.55;;;;;;;7.48;100.00;102115.13;10342133;28;20075;-78
2022/10/04 00:56:50;;;;;;;27.85;22.75;;;;;;;7.54;100.00;102109.50;10358154;28;20566;-78
2022/10/04 01:01:55;;;;;;;30.08;21.75;;;;;;;7.59;100.00;102105.56;10317641;28;20695;-78
2022/10/04 01:06:57;;;;;;;39.35;22.00;;;;;;;7.52;100.00;102102.34;10348494;28;20042;-78
2022/10/04 01:12:12;;;;;;;30.50;24.75;;;;;;;7.42;100.00;102101.63;10342089;28;20555;-78
2022/10/04 01:17:12;;;;;;;29.48;20.55;;;;;;;7.26;100.00;102104.66;10341988;28;20042;-78
2022/10/04 01:22:13;;;;;;;33.67;20.50;;;;;;;7.18;100.00;102098.84;10364863;28;20048;-78
2022/10/04 01:27:32;;;;;;;41.33;21.30;;;;;;;7.12;100.00;102103.56;10365184;28;20038;-78
2022/10/04 01:32:32;;;;;;;37.75;24.10;;;;;;;7.12;100.00;102098.34;10350354;28;20046;-78
2022/10/04 01:37:33;;;;;;;30.27;18.65;;;;;;;7.16;100.00;102086.47;10363472;28;20539;-78
2022/10/04 01:42:54;;;;;;;31.15;20.95;;;;;;;7.17;100.00;102075.28;10365132;28;20096;-78
2022/10/04 01:47:57;;;;;;;30.48;20.77;;;;;;;7.18;100.00;102064.06;10364389;28;20398;-77
2022/10/04 01:53:05;;;;;;;;;;;;;;;7.14;100.00;102062.00;10349512;28;20104;-78
2022/10/04 01:58:19;;;;;;;33.10;18.95;;;;;;;7.04;100.00;102052.56;10363927;28;19921;-78
2022/10/04 02:03:34;;;;;;;33.35;23.02;;;;;;;7.08;100.00;102039.00;10363755;28;20038;-78
2022/10/04 02:08:37;;;;;;;40.67;20.25;;;;;;;6.97;100.00;102052.84;10363805;28;20490;-78
2022/10/04 02:13:38;;;;;;;32.80;20.80;;;;;;;6.88;100.00;102050.38;10347519;28;20057;-78
2022/10/04 02:18:39;;;;;;;36.38;21.15;;;;;;;6.82;100.00;102032.59;10344959;28;20113;-78
2022/10/04 02:23:40;;;;;;;28.13;19.23;;;;;;;6.76;100.00;102032.09;10347145;28;20030;-78
2022/10/04 02:28:40;;;;;;;29.42;18.92;;;;;;;6.75;100.00;102020.75;10363203;28;20037;-78
2022/10/04 02:33:41;;;;;;;37.28;21.50;;;;;;;6.74;100.00;102029.34;10362360;28;20068;-78
2022/10/04 02:39:03;;;;;;;38.72;21.48;;;;;;;6.81;100.00;102016.84;10345558;28;20406;-77
2022/10/04 02:44:41;;;;;;;36.08;22.10;;;;;;;6.92;100.00;102010.81;10347713;28;20045;-78
2022/10/04 02:50:00;;;;;;;29.52;22.02;;;;;;;6.86;100.00;102015.53;10363709;28;20042;-78
2022/10/04 02:55:07;;;;;;;30.38;18.48;;;;;;;6.88;100.00;102008.75;10361367;28;20092;-78
2022/10/04 03:00:25;;;;;;;35.33;22.52;;;;;;;6.83;100.00;101994.47;10362446;28;20045;-78
2022/10/04 03:05:26;;;;;;;38.13;21.58;;;;;;;6.75;100.00;101986.94;10345496;28;20054;-77
2022/10/04 03:10:26;;;;;;;34.92;21.58;;;;;;;6.67;100.00;101982.81;10362789;28;20041;-78
2022/10/04 03:15:27;;;;;;;26.70;19.00;;;;;;;6.61;100.00;101979.69;10338179;28;20041;-77
2022/10/04 03:20:28;;;;;;;29.77;20.88;;;;;;;6.51;100.00;101969.31;10361981;28;20056;-77
2022/10/04 03:25:30;;;;;;;36.00;22.58;;;;;;;6.34;100.00;101953.25;10361618;28;20045;-78
2022/10/04 03:30:31;;;;;;;35.05;18.73;;;;;;;6.27;100.00;101956.13;10343841;28;20045;-78
2022/10/04 03:35:33;;;;;;;30.00;18.00;;;;;;;6.19;100.00;101944.19;10360412;28;20453;-78
2022/10/04 03:40:33;;;;;;;;;;;;;;;6.22;100.00;101934.97;10359257;28;20052;-77
2022/10/04 03:45:34;;;;;;;35.58;19.23;;;;;;;6.17;100.00;101937.19;10363123;28;19939;-78
2022/10/04 03:50:39;;;;;;;35.30;20.83;;;;;;;6.13;100.00;101937.69;10341837;28;20478;-78
2022/10/04 03:55:44;;;;;;;31.85;18.58;;;;;;;6.06;100.00;101937.09;10343995;28;20038;-78
2022/10/04 04:01:10;;;;;;;34.75;19.63;;;;;;;6.05;100.00;101935.25;10357944;28;20073;-78
2022/10/04 04:06:16;;;;;;;30.85;19.10;;;;;;;5.99;100.00;101946.00;10346117;28;20049;-78
2022/10/04 04:11:22;;;;;;;35.35;20.80;;;;;;;5.94;100.00;101942.13;10358389;28;20111;-77
2022/10/04 04:16:24;;;;;;;32.00;18.83;;;;;;;5.83;100.00;101931.72;10342064;28;20085;-78
2022/10/04 04:21:25;;;;;;;;;;;;;;;5.73;100.00;101931.72;10344275;28;20446;-77
2022/10/04 04:26:38;;;;;;;29.52;19.75;;;;;;;5.80;100.00;101931.47;10358905;28;19925;-78
2022/10/04 04:31:45;;;;;;;29.42;19.33;;;;;;;5.81;100.00;101920.31;10358944;28;20042;-78
2022/10/04 04:36:45;;;;;;;30.67;20.05;;;;;;;5.74;100.00;101912.78;10340016;28;20410;-78
2022/10/04 04:41:46;;;;;;;29.75;18.55;;;;;;;5.75;100.00;101914.59;10340657;28;20042;-76
2022/10/04 04:46:46;;;;;;;35.65;19.58;;;;;;;5.61;100.00;101907.31;10349697;28;20080;-77
2022/10/04 04:51:49;;;;;;;33.35;19.15;;;;;;;5.52;100.00;101910.97;10344755;28;20042;-77
2022/10/04 04:56:51;;;;;;;27.38;19.70;;;;;;;5.51;100.00;101913.44;10343125;28;20045;-77
2022/10/04 05:01:55;;;;;;;34.33;21.40;;;;;;;5.43;100.00;101908.50;10348935;28;20062;-77
2022/10/04 05:07:04;;;;;;;26.98;18.42;;;;;;;5.38;100.00;101911.47;10365134;28;20087;-76
2022/10/04 05:12:17;;;;;;;25.13;16.75;;;;;;;5.43;100.00;101920.56;10347420;28;20070;-78
2022/10/04 05:17:25;;;;;;;38.05;18.60;;;;;;;5.41;100.00;101922.13;10352869;28;20145;-77
2022/10/04 05:22:25;;;;;;;30.02;19.80;;;;;;;5.41;100.00;101902.28;10346084;28;20096;-77
2022/10/04 05:27:39;;;;;;;32.15;20.50;;;;;;;5.36;100.00;101905.25;10363758;28;20113;-77
2022/10/04 05:32:59;;;;;;;26.00;17.85;;;;;;;5.31;100.00;101904.88;10330225;28;20058;-77
2022/10/04 05:38:04;;;;;;;29.15;19.63;;;;;;;5.44;100.00;101897.34;10364054;28;20104;-77
2022/10/04 05:43:35;;;;;;;26.33;17.90;;;;;;;5.56;100.00;101883.56;10362287;28;20100;-77
2022/10/04 05:48:36;;;;;;;43.97;23.40;;;;;;;5.68;100.00;101883.69;10344014;28;20045;-80
2022/10/04 05:53:36;;;;;;;33.72;20.08;;;;;;;5.83;100.00;101874.56;10342835;28;20130;-77
2022/10/04 05:58:53;;;;;;;29.70;19.20;;;;;;;5.98;100.00;101887.03;10344480;28;20046;-79
2022/10/04 06:04:03;;;;;;;44.35;18.35;;;;;;;6.08;100.00;101884.44;10345900;28;20046;-76
2022/10/04 06:09:10;;;;;;;32.47;17.90;;;;;;;6.16;100.00;101898.06;10329045;28;20049;-76
2022/10/04 06:14:16;;;;;;;32.40;19.35;;;;;;;6.16;100.00;101906.75;10362234;28;20069;-75
2022/10/04 06:19:38;;;;;;;38.58;19.55;;;;;;;6.17;100.00;101912.88;10363229;28;20424;-78
2022/10/04 06:24:40;;;;;;;39.93;19.00;;;;;;;6.17;100.00;101912.88;10362892;28;20042;-78
2022/10/04 06:29:45;;;;;;;27.05;18.17;;;;;;;6.22;100.00;101923.66;10360573;28;20050;-78
2022/10/04 06:34:58;;;;;;;30.15;17.88;;;;;;;6.36;100.00;101930.00;10360131;28;20494;-78
2022/10/04 06:40:01;;;;;;;34.70;20.67;;;;;;;6.46;100.00;101917.84;10357300;28;20034;-80
2022/10/04 06:45:31;;;;;;;29.45;15.65;;;;;;;6.47;100.00;101921.38;10357925;28;20049;-77
2022/10/04 06:51:22;;;;;;;21.98;16.33;;;;;;;6.54;100.00;101930.56;10358330;28;20092;-79
2022/10/04 06:56:29;;;;;;;29.80;18.63;;;;;;;6.81;100.00;101924.09;10327894;28;20461;-78
2022/10/04 07:01:32;;;;;;;30.70;17.75;;;;;;;7.18;100.00;101916.59;10363481;28;20164;-77
2022/10/04 07:06:46;;;;;;;26.92;16.55;;;;;;;7.39;100.00;101913.84;10340095;28;20045;-79
2022/10/04 07:11:54;;;;;;;28.13;16.63;;;;;;;7.66;100.00;101911.53;10351151;28;20132;-79
2022/10/04 07:17:02;;;;;;;29.95;16.42;;;;;;;8.00;100.00;101913.16;10335563;28;20038;-78
2022/10/04 07:22:05;;;;;;;19.15;13.88;;;;;;;8.19;100.00;101911.13;10357498;28;20109;-80
2022/10/04 07:27:07;;;;;;;24.75;13.60;;;;;;;8.19;100.00;101892.88;10357345;28;20458;-77
2022/10/04 07:32:10;;;;;;;;;;;;;;;8.48;100.00;101904.53;10360193;28;20034;-79
2022/10/04 07:37:12;;;;;;;21.38;11.57;;;;;;;8.57;100.00;101904.34;10359996;28;19947;-77
2022/10/04 07:42:22;;;;;;;20.83;10.63;;;;;;;8.50;100.00;101897.75;10318776;28;20046;-77
2022/10/04 07:47:27;;;;;;;25.17;9.90;;;;;;;8.35;100.00;101901.81;10342629;28;20265;-80
2022/10/04 07:52:49;;;;;;;15.18;11.40;;;;;;;8.32;100.00;101904.22;10344464;28;20037;-78
2022/10/04 07:57:56;;;;;;;18.50;10.95;;;;;;;8.62;100.00;101899.44;10359602;28;20038;-78
2022/10/04 08:03:21;;;;;;;17.48;10.63;;;;;;;9.11;100.00;101900.31;10356571;28;20132;-79
2022/10/04 08:08:35;;;;;;;15.10;9.75;;;;;;;9.37;100.00;101906.44;10359102;28;20052;-77
2022/10/04 08:13:57;;;;;;;17.77;10.50;;;;;;;9.83;100.00;101906.09;10358838;28;20038;-78
2022/10/04 08:19:22;;;;;;;28.52;11.93;;;;;;;10.20;100.00;101910.22;10361380;28;20045;-77
2022/10/04 08:24:35;;;;;;;13.93;7.18;;;;;;;10.55;100.00;101911.66;10358559;28;20120;-77
2022/10/04 08:29:41;;;;;;;22.27;9.50;;;;;;;11.06;100.00;101898.25;10340244;28;20501;-79
2022/10/04 08:34:43;;;;;;;13.98;9.57;;;;;;;11.25;100.00;101897.69;10359940;28;20038;-78
2022/10/04 08:40:16;;;;;;;17.65;10.60;;;;;;;11.72;100.00;101884.72;10357766;28;20053;-78
2022/10/04 08:45:47;;;;;;;10.63;6.70;;;;;;;12.19;97.85;101891.88;10353562;28;20042;-78
2022/10/04 08:50:53;;;;;;;14.57;7.55;;;;;;;12.54;97.14;101892.06;10357273;28;20050;-78
2022/10/04 08:56:14;;;;;;;13.48;6.53;;;;;;;13.02;94.52;101881.53;10340191;28;20409;-78
2022/10/04 09:01:18;;;;;;;11.02;6.05;;;;;;;13.37;87.06;101889.47;10357730;28;20054;-77
2022/10/04 09:06:35;;;;;;;17.52;7.63;;;;;;;13.70;85.31;101883.31;10357369;28;20478;-77
2022/10/04 09:11:50;;;;;;;11.07;6.30;;;;;;;14.07;81.16;101877.25;10359235;28;20050;-77
2022/10/04 09:17:13;;;;;;;10.27;6.28;;;;;;;14.45;81.07;101875.59;10358597;28;20065;-76
2022/10/04 09:22:20;;;;;;;30.27;9.70;;;;;;;14.98;74.79;101864.88;10360086;28;20041;-78
2022/10/04 09:28:06;;;;;;;10.05;6.32;;;;;;;15.20;73.09;101869.38;10355644;28;20050;-75
2022/10/04 09:33:28;;;;;;;12.32;6.05;;;;;;;16.07;72.13;101878.38;10341539;28;20532;-77
2022/10/04 09:38:43;;;;;;;12.68;6.55;;;;;;;19.40;57.97;101860.53;10355768;28;20379;-76
2022/10/04 09:43:46;;;;;;;7.53;4.75;;;;;;;22.02;49.35;101862.66;10355343;28;20493;-78
2022/10/04 09:48:59;;;;;;;11.13;5.65;;;;;;;23.79;46.55;101863.13;10364913;28;20030;-76
2022/10/04 09:54:21;;;;;;;5.38;4.30;;;;;;;24.97;41.32;101861.19;10361302;28;20125;-76
2022/10/04 09:59:27;;;;;;;14.05;6.43;;;;;;;25.28;41.30;101865.72;10361051;28;20065;-77
2022/10/04 10:05:01;;;;;;;11.10;4.38;;;;;;;26.07;38.01;101861.31;10362621;28;20052;-77
2022/10/04 10:16:02;;;;;;;10.77;4.20;;;;;;;25.37;41.04;101841.63;10311453;28;20054;-80
2022/10/04 10:21:05;;;;;;;12.00;4.60;;;;;;;25.34;38.31;101849.66;10364370;28;20125;-78
2022/10/04 10:26:23;;;;;;;10.07;5.50;;;;;;;25.09;38.82;101854.97;10364172;28;20049;-77
2022/10/04 10:32:03;;;;;;;7.53;4.65;;;;;;;25.52;39.56;101835.44;10362589;28;20092;-77
2022/10/04 10:37:14;;;;;;;10.63;4.25;;;;;;;26.35;36.43;101836.28;10354214;28;20052;-77
2022/10/04 10:42:43;;;;;;;10.85;4.43;;;;;;;27.05;36.88;101833.31;10362238;28;20041;-77
2022/10/04 10:47:46;;;;;;;5.63;3.50;;;;;;;26.78;35.00;101821.78;10363374;28;20100;-77
2022/10/04 10:53:09;;;;;;;9.43;4.20;;;;;;;26.51;38.63;101812.94;10362473;28;20065;-77
2022/10/04 10:58:29;;;;;;;11.25;4.88;;;;;;;26.92;34.77;101811.88;10361486;28;20042;-77
2022/10/04 11:03:29;;;;;;;8.38;4.75;;;;;;;25.67;36.93;101812.22;10363441;28;20430;-77
2022/10/04 11:08:55;;;;;;;11.13;4.67;;;;;;;26.21;38.06;101807.69;10362644;28;20049;-77
2022/10/04 11:14:14;;;;;;;10.48;5.70;;;;;;;27.46;33.26;101807.94;10362499;28;20045;-77
2022/10/04 11:19:33;;;;;;;8.25;3.50;;;;;;;27.76;33.56;101808.59;10361975;28;20046;-77
2022/10/04 11:24:54;;;;;;;7.13;3.90;;;;;;;27.06;35.07;101819.88;10360671;28;20038;-77
2022/10/04 11:30:07;;;;;;;6.68;3.40;;;;;;;26.50;36.92;101820.13;10363153;28;20049;-77
2022/10/04 11:35:31;;;;;;;7.75;3.55;;;;;;;26.09;38.11;101808.56;10359788;28;20029;-78
2022/10/04 11:41:02;;;;;;;10.25;4.40;;;;;;;26.62;35.79;101803.06;10361676;28;20100;-78
2022/10/04 11:46:32;;;;;;;6.60;3.72;;;;;;;26.71;36.11;101802.13;10360715;28;20046;-78
2022/10/04 11:51:47;;;;;;;8.00;3.20;;;;;;;26.85;35.90;101791.34;10362083;28;20041;-78
2022/10/04 11:57:14;;;;;;;5.82;4.18;;;;;;;26.77;35.59;101782.41;10360434;28;20478;-78
2022/10/04 12:02:33;;;;;;;5.40;3.50;;;;;;;25.99;35.22;101774.63;10283031;28;20042;-77
2022/10/04 12:08:01;;;;;;;5.15;3.55;;;;;;;26.08;36.06;101774.59;10320276;28;20053;-77
2022/10/04 12:13:23;;;;;;;7.88;3.70;;;;;;;26.12;35.95;101775.50;10356567;28;20116;-76
2022/10/04 12:18:42;;;;;;;;;;;;;;;26.16;35.45;101768.34;10361439;28;20040;-76
2022/10/04 12:24:04;;;;;;;7.20;3.67;;;;;;;26.43;34.67;101759.31;10359863;28;20365;-78
2022/10/04 12:29:21;;;;;;;9.48;4.10;;;;;;;27.24;34.93;101757.06;10359794;28;20040;-77
2022/10/04 12:34:23;;;;;;;9.85;5.10;;;;;;;25.70;37.37;101753.25;10355720;28;20053;-77
2022/10/04 12:39:42;;;;;;;13.13;8.02;;;;;;;24.58;38.55;101764.66;10358414;28;20068;-77
2022/10/04 12:44:51;;;;;;;14.48;4.97;;;;;;;25.53;36.57;101753.25;10357098;28;20065;-77
2022/10/04 12:50:31;;;;;;;8.90;4.10;;;;;;;25.39;37.33;101746.06;10359890;28;20096;-78
2022/10/04 12:55:51;;;;;;;12.20;4.53;;;;;;;24.78;39.18;101731.72;10357968;28;20069;-77
2022/10/04 13:00:52;;;;;;;7.00;3.03;;;;;;;23.55;40.91;101727.53;10360038;28;20053;-77
2022/10/04 13:06:05;;;;;;;8.85;3.55;;;;;;;22.18;45.08;101715.41;10358571;28;20117;-77
2022/10/04 13:11:33;;;;;;;5.80;2.92;;;;;;;23.07;43.62;101703.97;10359476;28;20037;-78
2022/10/04 13:16:49;;;;;;;7.28;3.65;;;;;;;26.20;37.76;101692.34;10363461;28;20066;-77
2022/10/04 13:21:59;;;;;;;8.95;3.70;;;;;;;27.10;36.10;101691.78;10366714;28;20069;-77
2022/10/04 13:27:12;;;;;;;8.93;3.78;;;;;;;27.04;35.64;101687.38;10363393;28;20041;-77
2022/10/04 13:32:20;;;;;;;10.88;3.47;;;;;;;26.81;36.83;101677.69;10364265;28;20053;-77
2022/10/04 13:37:43;;;;;;;5.10;3.03;;;;;;;27.51;33.60;101668.19;10348794;28;20054;-77
2022/10/04 13:42:48;;;;;;;7.93;3.58;;;;;;;26.05;36.07;101674.50;10363236;28;20046;-77
2022/10/04 13:48:10;;;;;;;11.20;4.85;;;;;;;26.49;37.48;101673.41;10364504;28;20359;-77
2022/10/04 13:59:00;;;;;;;10.57;3.33;;;;;;;25.18;37.88;101670.19;10365098;28;20045;-77
2022/10/04 14:04:08;;;;;;;7.93;3.15;;;;;;;25.48;36.02;101667.53;10365965;28;20045;-77
2022/10/04 14:09:17;;;;;;;7.07;2.50;;;;;;;24.87;40.28;101674.66;10361907;28;20034;-77
2022/10/04 14:14:35;;;;;;;6.93;3.20;;;;;;;22.07;41.94;101685.06;10364410;28;20069;-77
2022/10/04 14:19:41;;;;;;;15.45;4.03;;;;;;;21.63;45.78;101657.81;10331591;28;20044;-76
2022/10/04 14:24:52;;;;;;;15.52;3.67;;;;;;;22.32;47.97;101658.69;10362566;28;20040;-77
2022/10/04 14:30:18;;;;;;;5.55;3.97;;;;;;;22.97;42.21;101659.38;10361812;28;20453;-76
2022/10/04 14:35:31;;;;;;;8.93;3.15;;;;;;;21.68;45.01;101641.91;10322723;28;20050;-77
2022/10/04 14:40:59;;;;;;;9.60;4.50;;;;;;;20.19;50.29;101648.19;10353435;28;20073;-76
2022/10/04 14:46:09;;;;;;;7.13;3.35;;;;;;;19.85;55.17;101646.56;10363286;28;20046;-77
2022/10/04 14:51:38;;;;;;;7.30;3.50;;;;;;;19.63;56.25;101633.69;10363812;28;20056;-77
2022/10/04 14:57:00;;;;;;;5.97;3.58;;;;;;;19.77;56.28;101636.69;10352333;28;20042;-77
2022/10/04 15:02:08;;;;;;;19.40;12.27;;;;;;;20.47;51.74;101638.09;10359245;28;20429;-77
2022/10/04 15:07:17;;;;;;;19.35;5.68;;;;;;;20.01;52.78;101647.81;10360310;28;20073;-77
2022/10/04 15:12:45;;;;;;;12.02;6.22;;;;;;;20.01;54.65;101640.75;10360814;28;20512;-77
2022/10/04 15:17:48;;;;;;;8.95;3.75;;;;;;;19.27;56.45;101639.06;10333145;28;20038;-77
2022/10/04 15:23:06;;;;;;;13.35;4.25;;;;;;;18.89;57.92;101646.06;10362087;28;20052;-77
2022/10/04 15:28:13;;;;;;;8.85;4.15;;;;;;;18.19;63.73;101630.94;10329574;28;20073;-77
2022/10/04 15:33:23;;;;;;;10.80;5.60;;;;;;;17.98;62.13;101632.94;10352857;28;20042;-76
2022/10/04 15:38:34;;;;;;;13.02;5.07;;;;;;;18.13;64.19;101637.84;10354791;28;20030;-75
2022/10/04 15:43:44;;;;;;;6.55;4.13;;;;;;;17.50;62.39;101635.03;10349746;28;20411;-76
2022/10/04 15:48:50;;;;;;;12.52;3.63;;;;;;;16.86;64.46;101642.63;10338938;28;20486;-79
2022/10/04 15:53:59;;;;;;;16.75;6.50;;;;;;;16.06;68.86;101638.94;10359192;28;20068;-76
2022/10/04 15:59:34;;;;;;;10.23;4.03;;;;;;;15.34;71.38;101626.44;10346665;28;20121;-77
2022/10/04 16:04:39;;;;;;;36.63;33.35;;;;;;;14.82;75.03;101626.09;10332278;28;20779;-77
2022/10/04 16:09:53;;;;;;;16.08;7.07;;;;;;;14.33;80.29;101619.59;10356991;28;20042;-77
2022/10/04 16:15:13;;;;;;;7.75;4.88;;;;;;;13.99;81.38;101618.94;10355127;28;20052;-77
2022/10/04 16:20:16;;;;;;;10.25;3.85;;;;;;;13.63;84.70;101619.03;10355711;28;20042;-76
2022/10/04 16:25:23;;;;;;;8.45;3.67;;;;;;;13.30;87.23;101633.25;10356013;28;20449;-76
2022/10/04 16:30:26;;;;;;;11.10;5.97;;;;;;;13.10;89.32;101627.00;10357662;28;20046;-76
2022/10/04 16:35:33;;;;;;;13.10;4.47;;;;;;;12.97;91.68;101635.09;10358098;28;20038;-76
2022/10/04 16:40:49;;;;;;;7.50;4.18;;;;;;;12.76;93.11;101628.88;10356638;28;20049;-76
2022/10/04 16:45:52;;;;;;;11.82;4.97;;;;;;;12.52;95.58;101623.25;10356744;28;20383;-77
2022/10/04 16:51:03;;;;;;;10.55;3.35;;;;;;;12.36;96.93;101625.88;10362942;28;20498;-76
2022/10/04 16:56:24;;;;;;;7.13;2.67;;;;;;;12.16;98.46;101636.22;10365601;28;20494;-80
2022/10/04 17:02:05;;;;;;;6.60;2.90;;;;;;;11.89;99.20;101641.75;10365015;28;20047;-77
2022/10/04 17:07:08;;;;;;;4.53;2.58;;;;;;;11.77;100.00;101636.75;10362720;28;20041;-76
2022/10/04 17:12:44;;;;;;;2.20;1.10;;;;;;;11.51;100.00;101654.56;10365658;28;20045;-76
2022/10/04 17:17:45;;;;;;;1.10;0.98;;;;;;;11.14;100.00;101674.31;10377302;28;20534;-75
2022/10/04 17:23:15;;;;;;;3.95;2.95;;;;;;;10.92;100.00;101681.72;10365825;28;20057;-76
2022/10/04 17:28:38;;;;;;;2.75;2.15;;;;;;;10.69;100.00;101681.25;10319680;28;20034;-76
2022/10/04 17:33:42;;;;;;;;;;;;;;;10.57;100.00;101695.41;10361902;28;20383;-76
2022/10/04 17:38:45;;;;;;;7.30;4.35;;;;;;;10.50;100.00;101695.84;10362085;28;20350;-76
2022/10/04 17:43:54;;;;;;;9.90;5.93;;;;;;;10.38;100.00;101711.66;10364947;28;20454;-75
2022/10/04 18:00:09;;;;;;;5.25;4.75;;;;;;;10.06;100.00;101701.78;10350731;28;20406;-76
2022/10/04 18:05:40;;;;;;;6.28;3.33;;;;;;;10.11;100.00;101696.06;10362681;28;20474;-76
2022/10/04 18:10:50;;;;;;;10.07;8.30;;;;;;;10.08;100.00;101692.31;10364868;28;20050;-75
2022/10/04 18:16:27;;;;;;;13.00;8.75;;;;;;;10.18;100.00;101699.94;10362378;28;20162;-75
2022/10/04 18:21:30;;;;;;;15.60;11.05;;;;;;;10.14;100.00;101701.47;10326384;28;20038;-75
2022/10/04 18:26:33;;;;;;;26.08;9.10;;;;;;;10.04;100.00;101706.00;10361611;28;20042;-78
2022/10/04 18:31:35;;;;;;;10.63;7.93;;;;;;;10.12;100.00;101716.16;10365851;28;20044;-77
2022/10/04 18:37:09;;;;;;;8.38;5.63;;;;;;;10.12;100.00;101699.56;10344380;28;20042;-76
2022/10/04 18:42:15;;;;;;;6.80;5.43;;;;;;;10.09;100.00;101694.13;10321890;28;20069;-76
2022/10/04 18:47:36;;;;;;;9.32;8.52;;;;;;;10.14;100.00;101683.16;10361029;28;20544;-76
2022/10/04 18:52:47;;;;;;;14.67;7.20;;;;;;;10.29;100.00;101682.31;10363243;28;20124;-77
2022/10/04 19:03:29;;;;;;;14.27;7.13;;;;;;;10.29;100.00;101667.50;10346244;28;20054;-75
2022/10/04 19:08:35;;;;;;;18.23;6.65;;;;;;;10.23;100.00;101669.75;10360096;28;20037;-77
2022/10/04 19:13:51;;;;;;;15.90;7.22;;;;;;;10.20;100.00;101671.28;10358222;28;20041;-77
2022/10/04 19:18:51;;;;;;;14.95;7.00;;;;;;;10.12;100.00;101669.09;10358817;28;20125;-77
2022/10/04 19:24:28;;;;;;;10.65;8.13;;;;;;;10.05;100.00;101684.28;10359467;28;20440;-77
2022/10/04 19:29:49;;;;;;;9.25;5.32;;;;;;;9.93;100.00;101687.94;10357690;28;20124;-77
2022/10/04 19:34:56;;;;;;;11.40;7.10;;;;;;;9.83;100.00;101686.47;10359458;28;20729;-77
2022/10/04 19:40:13;;;;;;;15.15;6.97;;;;;;;9.74;100.00;101679.72;10361376;28;20030;-77
2022/10/04 19:45:59;;;;;;;9.65;7.45;;;;;;;9.60;100.00;101681.47;10341752;28;20049;-77
2022/10/04 19:51:03;;;;;;;15.30;9.75;;;;;;;9.43;100.00;101690.81;10356622;28;20030;-77
2022/10/04 19:56:05;;;;;;;13.15;7.40;;;;;;;9.36;100.00;101700.84;10342911;28;20045;-77
2022/10/04 20:01:13;;;;;;;16.58;9.00;;;;;;;9.35;100.00;101693.81;10360163;28;20031;-77
2022/10/04 20:06:21;;;;;;;17.98;8.70;;;;;;;9.40;100.00;101686.31;10358514;28;20038;-77
2022/10/04 20:11:26;;;;;;;18.60;8.15;;;;;;;9.45;100.00;101677.06;10340300;28;20064;-77
2022/10/04 20:16:45;;;;;;;17.30;13.65;;;;;;;9.47;100.00;101669.28;10337650;28;20052;-77
2022/10/04 20:21:46;;;;;;;14.10;9.48;;;;;;;9.33;100.00;101661.47;10357235;28;20042;-77
2022/10/04 20:26:54;;;;;;;13.15;8.70;;;;;;;9.21;100.00;101661.59;10355849;28;20076;-77
2022/10/04 20:31:55;;;;;;;11.40;8.00;;;;;;;9.14;100.00;101659.38;10350154;28;20065;-77
2022/10/04 20:36:55;;;;;;;17.15;8.95;;;;;;;9.11;100.00;101670.50;10357528;28;20116;-77
2022/10/04 20:42:18;;;;;;;9.43;8.07;;;;;;;9.02;100.00;101663.78;10340969;28;20092;-77
2022/10/04 20:47:38;;;;;;;9.55;8.30;;;;;;;8.96;100.00;101669.47;10340803;28;20034;-77
2022/10/04 20:52:52;;;;;;;13.43;8.70;;;;;;;8.91;100.00;101669.19;10359363;28;20120;-77
2022/10/04 20:58:27;;;;;;;23.92;9.43;;;;;;;8.97;100.00;101666.06;10342609;28;20041;-78
2022/10/04 21:03:29;;;;;;;11.63;10.68;;;;;;;8.98;100.00;101667.88;10356149;28;20069;-78
2022/10/04 21:08:29;;;;;;;11.38;10.15;;;;;;;8.98;100.00;101665.25;10357116;28;20125;-77
2022/10/04 21:13:56;;;;;;;12.90;11.55;;;;;;;8.91;100.00;101661.34;10357018;28;20493;-77
2022/10/04 21:19:31;;;;;;;8.48;7.47;;;;;;;8.75;100.00;101655.91;10357043;28;20038;-77
2022/10/04 21:24:44;;;;;;;10.82;10.23;;;;;;;8.77;100.00;101664.75;10357245;28;20096;-77
2022/10/04 21:29:45;;;;;;;0.95;0.80;;;;;;;8.72;100.00;101666.13;10359306;28;20510;-77
2022/10/04 21:34:45;;;;;;;5.10;4.88;;;;;;;8.65;100.00;101670.00;10357100;28;20133;-77
2022/10/04 21:39:46;;;;;;;8.00;7.60;;;;;;;8.68;100.00;101672.81;10364916;28;20133;-77
2022/10/04 21:44:47;;;;;;;7.75;7.38;;;;;;;8.69;100.00;101673.75;10363467;28;20549;-77
2022/10/04 21:49:49;;;;;;;1.88;1.13;;;;;;;8.65;100.00;101675.22;10363508;28;20045;-77
2022/10/04 21:54:49;;;;;;;1.20;0.80;;;;;;;8.62;100.00;101669.81;10365995;28;20030;-77
2022/10/04 21:59:50;;;;;;;2.13;2.00;;;;;;;8.66;100.00;101662.31;10363381;28;20524;-77
2022/10/04 22:04:51;;;;;;;2.28;2.17;;;;;;;8.68;100.00;101654.56;10346948;28;20469;-77
2022/10/04 22:09:51;;;;;;;2.50;2.40;;;;;;;8.72;100.00;101676.56;10365178;28;20040;-77
2022/10/04 22:14:52;;;;;;;2.67;2.58;;;;;;;8.70;100.00;101671.22;10364003;28;20038;-77
2022/10/04 22:19:52;;;;;;;7.53;7.18;;;;;;;8.77;100.00;101664.75;10362402;28;20038;-78
2022/10/04 22:24:53;;;;;;;14.30;13.52;;;;;;;8.87;100.00;101666.25;10361773;28;20046;-77
2022/10/04 22:29:55;;;;;;;13.40;12.80;;;;;;;8.99;100.00;101664.47;10329544;28;20084;-77
2022/10/04 22:34:59;;;;;;;12.50;11.90;;;;;;;9.16;100.00;101659.44;10331299;28;20038;-77
2022/10/04 22:40:00;;;;;;;10.65;10.05;;;;;;;9.32;100.00;101661.38;10362328;28;20084;-78
2022/10/04 22:45:00;;;;;;;10.80;10.00;;;;;;;9.35;100.00;101662.47;10361620;28;20177;-77
2022/10/04 22:50:01;;;;;;;9.98;9.38;;;;;;;9.43;100.00;101662.97;10362457;28;20124;-78
2022/10/04 22:55:01;;;;;;;10.90;10.20;;;;;;;9.53;100.00;101664.47;10363006;28;20553;-77
2022/10/04 23:00:02;;;;;;;0.52;0.30;;;;;;;9.70;100.00;101661.22;10345144;28;20042;-77
2022/10/04 23:05:16;;;;;;;12.98;8.50;;;;;;;9.79;100.00;101665.25;10362005;28;20088;-77
2022/10/04 23:10:17;;;;;;;16.52;11.38;;;;;;;9.94;100.00;101647.00;10361184;28;20038;-77
2022/10/04 23:15:19;;;;;;;13.48;12.27;;;;;;;10.02;100.00;101647.47;10344125;28;20160;-77
2022/10/04 23:20:19;;;;;;;18.95;17.20;;;;;;;10.07;100.00;101639.13;10360748;28;20623;-77
2022/10/04 23:25:25;;;;;;;12.73;11.63;;;;;;;10.09;100.00;101632.28;10359742;28;20041;-77
2022/10/04 23:30:25;;;;;;;13.90;12.70;;;;;;;10.16;100.00;101628.31;10312331;28;20049;-76
2022/10/04 23:35:30;;;;;;;6.90;6.30;;;;;;;10.11;100.00;101609.72;10359499;28;20052;-77
2022/10/04 23:40:31;;;;;;;6.80;6.30;;;;;;;10.08;100.00;101601.69;10360521;28;20046;-77
2022/10/04 23:45:33;;;;;;;7.75;7.15;;;;;;;10.02;100.00;101605.63;10361225;28;20149;-77
2022/10/04 23:50:35;;;;;;;7.65;7.07;;;;;;;10.01;100.00;101594.28;10360404;28;20474;-77
2022/10/04 23:55:40;;;;;;;13.18;11.82;;;;;;;10.10;100.00;101592.22;10359803;28;20045;-77
